Time;durP1;ratioP1;P1;durP2;ratioP2;P2;SDS_P1;SDS_P2;PMS_P1;PMS_P2;Temp;Humidity;BMP_temperature;BMP_pressure;BME280_temperature;BME280_humidity;BME280_pressure;Samples;Min_cycle;Max_cycle;Signal;HPM_P1;HPM_P2
2022/03/09 00:01:30;;;;;;;38.30;20.60;;;;;;;3.24;67.08;100824.84;129611;1275;106676;-76
2022/03/09 00:04:35;;;;;;;34.30;19.30;;;;;;;3.24;67.03;100831.34;129503;1276;108718;-75
2022/03/09 00:07:41;;;;;;;38.80;20.20;;;;;;;3.21;66.80;100831.38;129540;1276;108702;-76
2022/03/09 00:10:47;;;;;;;34.20;19.90;;;;;;;3.18;67.06;100827.52;129432;1276;107442;-75
2022/03/09 00:13:53;;;;;;;38.20;20.30;;;;;;;3.12;67.00;100827.46;129595;1275;108734;-77
2022/03/09 00:16:58;;;;;;;38.50;20.30;;;;;;;3.09;67.01;100817.30;129404;1276;108770;-76
2022/03/09 00:20:06;;;;;;;40.20;21.10;;;;;;;3.07;67.12;100818.98;129453;1276;108634;-77
2022/03/09 00:23:12;;;;;;;36.60;19.90;;;;;;;3.05;67.03;100819.48;129665;1276;109802;-76
2022/03/09 00:26:17;;;;;;;40.00;19.90;;;;;;;3.00;67.24;100818.71;129710;1276;108651;-77
2022/03/09 00:29:23;;;;;;;38.40;19.90;;;;;;;2.94;67.35;100818.52;129332;1276;108752;-77
2022/03/09 00:32:28;;;;;;;42.30;21.50;;;;;;;2.94;67.24;100818.83;129399;1276;109018;-78
2022/03/09 00:35:34;;;;;;;35.70;17.90;;;;;;;3.00;67.41;100819.06;129427;1276;108732;-76
2022/03/09 00:38:39;;;;;;;35.00;18.40;;;;;;;3.03;67.37;100816.73;129288;1276;108749;-76
2022/03/09 00:41:45;;;;;;;36.10;19.00;;;;;;;3.09;67.28;100811.29;129430;1276;108735;-76
2022/03/09 00:44:50;;;;;;;36.70;18.70;;;;;;;3.14;67.35;100807.63;129418;1276;109160;-75
2022/03/09 00:47:56;;;;;;;38.20;19.20;;;;;;;3.19;67.22;100809.67;129379;1276;108794;-77
2022/03/09 00:51:01;;;;;;;35.50;18.20;;;;;;;3.23;67.21;100812.76;129414;1276;108826;-76
2022/03/09 00:54:06;;;;;;;35.70;19.40;;;;;;;3.24;67.14;100814.13;129397;1276;108683;-77
2022/03/09 00:57:12;;;;;;;36.40;19.50;;;;;;;3.22;67.17;100811.61;129596;1276;108819;-77
2022/03/09 01:00:18;;;;;;;35.70;18.80;;;;;;;3.22;67.22;100805.80;129715;1276;108950;-78
2022/03/09 01:03:24;;;;;;;37.10;19.10;;;;;;;3.22;67.16;100806.34;129418;1276;108557;-77
2022/03/09 01:06:29;;;;;;;40.00;19.80;;;;;;;3.19;67.25;100803.15;129428;1276;106881;-78
2022/03/09 01:09:35;;;;;;;38.90;19.80;;;;;;;3.18;67.17;100799.04;129478;1276;107773;-78
2022/03/09 01:12:41;;;;;;;36.20;18.80;;;;;;;3.15;67.17;100797.05;129585;1276;108821;-77
2022/03/09 01:15:47;;;;;;;39.50;20.20;;;;;;;3.13;67.20;100798.75;129467;1276;107709;-78
2022/03/09 01:18:52;;;;;;;39.70;20.00;;;;;;;3.10;67.50;100804.36;129521;1276;108790;-75
2022/03/09 01:21:58;;;;;;;44.10;21.40;;;;;;;3.07;67.41;100802.08;129405;1276;108809;-76
2022/03/09 01:25:03;;;;;;;54.80;22.80;;;;;;;3.11;67.50;100798.52;129397;1276;107738;-75
2022/03/09 01:28:09;;;;;;;174.90;66.10;;;;;;;3.19;67.35;100796.69;129614;1276;106995;-76
2022/03/09 01:31:14;;;;;;;58.10;26.20;;;;;;;3.24;67.27;100795.48;129411;1276;109021;-77
2022/03/09 01:34:20;;;;;;;45.40;21.30;;;;;;;3.28;67.35;100793.98;129400;1276;108870;-76
2022/03/09 01:37:26;;;;;;;140.10;49.50;;;;;;;3.31;67.22;100792.55;129544;1276;108844;-76
2022/03/09 01:40:31;;;;;;;87.40;32.50;;;;;;;3.33;67.30;100787.04;129412;1276;108466;-76
2022/03/09 01:43:37;;;;;;;446.70;153.50;;;;;;;3.32;67.39;100787.23;129505;1276;108823;-77
2022/03/09 01:46:43;;;;;;;171.90;55.10;;;;;;;3.33;67.28;100784.34;129513;1276;106906;-76
2022/03/09 01:49:49;;;;;;;408.40;135.50;;;;;;;3.33;67.13;100782.80;129446;1276;108720;-76
2022/03/09 01:52:54;;;;;;;94.30;33.70;;;;;;;3.33;67.14;100780.34;129512;1276;108648;-78
2022/03/09 01:56:02;;;;;;;68.10;27.50;;;;;;;3.30;67.17;100777.52;129485;1276;108951;-78
2022/03/09 01:59:11;;;;;;;120.60;41.40;;;;;;;3.25;67.14;100777.09;129694;1276;109025;-75
2022/03/09 02:02:16;;;;;;;100.30;42.50;;;;;;;3.22;67.29;100776.60;129417;1276;108817;-75
2022/03/09 02:05:24;;;;;;;81.60;37.00;;;;;;;3.21;67.13;100774.70;129410;1276;108994;-75
2022/03/09 02:11:54;;;;;;;50.60;23.40;;;;;;;3.17;67.18;100775.82;129437;1276;107588;-77
2022/03/09 02:15:00;;;;;;;65.20;27.20;;;;;;;3.13;67.19;100773.60;129513;1276;106689;-76
2022/03/09 02:18:06;;;;;;;48.40;22.00;;;;;;;3.09;67.16;100771.05;129481;1276;107830;-76
2022/03/09 02:21:16;;;;;;;77.00;32.80;;;;;;;3.08;67.30;100773.02;129529;1276;107348;-76
2022/03/09 02:24:23;;;;;;;74.30;35.60;;;;;;;3.08;67.32;100769.84;129584;1275;108979;-76
2022/03/09 02:27:28;;;;;;;42.00;21.10;;;;;;;3.12;67.32;100769.96;129443;1276;108964;-76
2022/03/09 02:30:34;;;;;;;39.20;18.80;;;;;;;3.18;67.32;100773.88;129443;1276;108942;-76
2022/03/09 02:33:39;;;;;;;63.10;31.00;;;;;;;3.22;67.22;100775.52;129482;1273;109133;-76
2022/03/09 02:36:45;;;;;;;160.40;70.90;;;;;;;3.25;67.03;100775.36;129425;1276;108912;-76
2022/03/09 02:39:50;;;;;;;46.10;23.00;;;;;;;3.26;67.09;100777.41;129472;1276;109018;-77
2022/03/09 02:42:55;;;;;;;38.00;18.80;;;;;;;3.25;67.02;100779.61;129579;1276;108869;-75
2022/03/09 02:46:01;;;;;;;38.00;20.60;;;;;;;3.21;67.04;100779.65;129449;1276;109253;-77
2022/03/09 02:49:07;;;;;;;36.40;18.30;;;;;;;3.19;67.10;100778.86;129435;1276;109052;-77
2022/03/09 02:52:13;;;;;;;31.80;17.20;;;;;;;3.19;66.94;100774.16;129481;1276;109005;-75
2022/03/09 02:55:19;;;;;;;31.60;16.70;;;;;;;3.17;67.08;100772.36;129517;1276;108694;-75
2022/03/09 02:58:25;;;;;;;30.80;16.30;;;;;;;3.15;67.01;100765.95;129604;1276;108814;-75
2022/03/09 03:01:31;;;;;;;32.20;17.60;;;;;;;3.14;67.05;100761.05;129754;1276;108885;-76
2022/03/09 03:04:37;;;;;;;33.00;18.70;;;;;;;3.10;67.11;100760.77;129537;1276;108793;-74
2022/03/09 03:07:42;;;;;;;34.40;18.30;;;;;;;3.06;67.18;100766.86;129593;1276;108905;-73
2022/03/09 03:10:47;;;;;;;34.40;18.30;;;;;;;3.03;67.11;100761.05;129710;1276;109167;-78
2022/03/09 03:13:53;;;;;;;38.00;18.70;;;;;;;2.99;67.14;100764.45;129634;1276;108881;-76
2022/03/09 03:16:58;;;;;;;36.80;17.50;;;;;;;2.93;67.26;100764.09;129633;1275;108925;-75
2022/03/09 03:20:05;;;;;;;34.30;16.80;;;;;;;2.89;67.21;100763.81;129482;1276;108793;-76
2022/03/09 03:23:10;;;;;;;33.10;15.90;;;;;;;2.91;67.28;100766.86;129651;1276;108662;-76
2022/03/09 03:26:15;;;;;;;35.50;18.40;;;;;;;2.93;67.32;100766.04;129725;1276;108804;-75
2022/03/09 03:29:21;;;;;;;33.00;16.20;;;;;;;2.95;67.27;100765.05;129464;1276;108774;-74
2022/03/09 03:32:26;;;;;;;30.70;16.00;;;;;;;2.97;67.18;100759.84;129648;1276;108833;-76
2022/03/09 03:35:32;;;;;;;32.60;17.00;;;;;;;2.96;67.13;100760.77;129730;1275;108790;-76
2022/03/09 03:38:37;;;;;;;30.40;16.00;;;;;;;2.94;66.98;100758.60;129543;1276;108978;-74
2022/03/09 03:41:43;;;;;;;27.00;15.30;;;;;;;2.93;67.20;100759.73;129454;1276;108791;-76
2022/03/09 03:44:48;;;;;;;29.40;16.40;;;;;;;2.90;67.19;100756.00;129515;1274;108837;-77
2022/03/09 03:47:54;;;;;;;27.70;16.10;;;;;;;2.87;67.23;100757.08;129719;1275;108786;-77
2022/03/09 03:50:59;;;;;;;30.40;16.60;;;;;;;2.84;67.30;100761.27;129558;1276;108819;-75
2022/03/09 03:54:05;;;;;;;33.70;18.60;;;;;;;2.81;67.17;100763.21;129513;1275;108832;-75
2022/03/09 03:57:11;;;;;;;36.30;18.40;;;;;;;2.74;67.24;100774.69;129486;1275;108877;-76
2022/03/09 04:00:18;;;;;;;31.60;16.90;;;;;;;2.69;67.22;100769.89;129636;1276;108664;-78
2022/03/09 04:03:23;;;;;;;35.20;19.00;;;;;;;2.66;67.33;100770.60;129710;1276;108871;-80
2022/03/09 04:06:28;;;;;;;34.10;17.00;;;;;;;2.65;67.21;100770.66;129807;1276;108867;-75
2022/03/09 04:09:34;;;;;;;34.10;15.90;;;;;;;2.64;67.35;100771.73;129482;1276;109131;-80
2022/03/09 04:12:39;;;;;;;28.10;15.40;;;;;;;2.64;67.35;100769.50;129711;1276;108895;-72
2022/03/09 04:15:45;;;;;;;27.80;13.40;;;;;;;2.68;67.29;100764.72;129611;1276;108980;-76
2022/03/09 04:18:50;;;;;;;32.40;16.50;;;;;;;2.73;67.39;100758.92;129727;1276;108899;-74
2022/03/09 04:21:56;;;;;;;29.90;15.90;;;;;;;2.77;67.42;100752.55;129479;1276;107893;-76
2022/03/09 04:25:01;;;;;;;28.50;15.30;;;;;;;2.74;67.45;100748.69;129523;1276;109289;-75
2022/03/09 04:28:07;;;;;;;70.80;27.00;;;;;;;2.71;67.45;100741.82;129662;1275;108730;-75
2022/03/09 04:31:13;;;;;;;50.50;23.30;;;;;;;2.68;67.55;100739.92;129416;1276;108737;-75
2022/03/09 04:34:18;;;;;;;31.70;17.00;;;;;;;2.58;67.70;100742.97;129605;1276;108734;-75
2022/03/09 04:37:24;;;;;;;130.70;50.00;;;;;;;2.52;67.68;100738.77;129583;1275;108696;-75
2022/03/09 04:40:29;;;;;;;39.60;21.20;;;;;;;2.49;67.81;100738.39;129730;1276;108965;-75
2022/03/09 04:43:36;;;;;;;32.20;17.50;;;;;;;2.45;67.94;100738.13;129520;1276;107780;-75
2022/03/09 04:46:42;;;;;;;45.90;24.20;;;;;;;2.37;68.29;100739.45;129508;1276;109021;-75
2022/03/09 04:49:47;;;;;;;32.90;17.60;;;;;;;2.31;68.07;100745.74;129411;1276;108773;-75
2022/03/09 04:52:52;;;;;;;38.80;17.90;;;;;;;2.28;68.12;100747.65;129416;1276;108904;-75
2022/03/09 04:55:58;;;;;;;28.40;15.10;;;;;;;2.26;68.36;100749.54;129547;1276;108928;-75
2022/03/09 04:59:04;;;;;;;35.00;17.30;;;;;;;2.32;68.21;100754.16;129443;1276;108856;-74
2022/03/09 05:02:10;;;;;;;33.80;17.90;;;;;;;2.36;68.19;100752.64;129459;1276;108865;-75
2022/03/09 05:05:15;;;;;;;47.20;22.60;;;;;;;2.36;68.35;100756.15;129544;1276;107597;-74
2022/03/09 05:08:21;;;;;;;60.40;26.00;;;;;;;2.33;68.50;100751.05;129622;1276;108979;-75
2022/03/09 05:11:26;;;;;;;40.70;19.40;;;;;;;2.29;68.45;100746.41;129473;1276;107909;-74
2022/03/09 05:14:31;;;;;;;33.20;18.00;;;;;;;2.24;68.67;100750.17;129514;1276;108729;-75
2022/03/09 05:17:42;;;;;;;38.30;19.70;;;;;;;2.20;68.36;100748.14;129433;1276;108880;-74
2022/03/09 05:20:48;;;;;;;55.90;32.20;;;;;;;2.17;68.89;100751.12;129493;1276;108905;-75
2022/03/09 05:23:53;;;;;;;36.80;19.00;;;;;;;2.12;68.51;100752.27;129418;1276;108509;-75
2022/03/09 05:26:59;;;;;;;39.10;19.20;;;;;;;2.09;69.11;100759.12;129408;1276;106707;-75
2022/03/09 05:30:08;;;;;;;35.70;18.90;;;;;;;2.06;69.15;100761.92;129454;1276;107852;-76
2022/03/09 05:33:13;;;;;;;32.70;16.90;;;;;;;2.07;69.00;100763.60;129450;1276;108970;-76
2022/03/09 05:36:19;;;;;;;39.80;18.80;;;;;;;2.12;69.04;100763.87;129455;1276;108790;-75
2022/03/09 05:39:24;;;;;;;34.40;18.80;;;;;;;2.16;69.19;100773.48;129476;1276;108685;-75
2022/03/09 05:42:30;;;;;;;37.00;20.00;;;;;;;2.17;69.22;100778.14;129677;1276;107525;-75
2022/03/09 05:45:35;;;;;;;39.00;19.90;;;;;;;2.13;69.63;100781.88;129648;1275;108899;-76
2022/03/09 05:48:41;;;;;;;41.80;21.60;;;;;;;2.06;69.89;100785.78;129666;1276;108998;-76
2022/03/09 05:51:46;;;;;;;38.10;20.70;;;;;;;2.02;69.86;100793.55;129684;1276;107620;-75
2022/03/09 05:54:53;;;;;;;36.90;19.40;;;;;;;2.00;70.07;100797.55;129645;1276;108916;-77
2022/03/09 05:57:59;;;;;;;40.80;20.40;;;;;;;1.98;69.86;100803.95;129675;1276;109076;-76
2022/03/09 06:01:04;;;;;;;78.60;31.30;;;;;;;1.99;69.82;100810.02;129535;1276;108864;-75
2022/03/09 06:04:10;;;;;;;40.50;19.90;;;;;;;2.05;70.04;100810.27;129624;1276;109039;-75
2022/03/09 06:07:15;;;;;;;43.30;22.20;;;;;;;2.10;70.41;100820.31;129630;1276;107303;-76
2022/03/09 06:10:21;;;;;;;102.70;46.20;;;;;;;2.18;69.96;100827.40;129726;1275;108801;-75
2022/03/09 06:13:26;;;;;;;58.40;27.90;;;;;;;2.23;70.28;100825.94;129761;1276;108697;-75
2022/03/09 06:16:32;;;;;;;151.20;54.30;;;;;;;2.22;70.76;100827.74;129660;1276;109308;-76
2022/03/09 06:19:38;;;;;;;59.40;29.80;;;;;;;2.20;70.80;100830.28;129563;1276;106625;-76
2022/03/09 06:22:43;;;;;;;45.90;24.30;;;;;;;2.19;70.79;100824.89;129831;1276;108751;-72
2022/03/09 06:25:49;;;;;;;41.60;21.60;;;;;;;2.20;70.45;100826.96;129741;1276;108901;-77
2022/03/09 06:28:54;;;;;;;43.80;22.30;;;;;;;2.22;70.43;100825.96;129611;1275;108843;-76
2022/03/09 06:32:00;;;;;;;75.50;31.20;;;;;;;2.27;70.68;100829.73;129667;1274;108813;-77
2022/03/09 06:35:08;;;;;;;44.50;24.20;;;;;;;2.33;70.57;100830.45;129665;1274;108926;-77
2022/03/09 06:38:14;;;;;;;110.80;53.70;;;;;;;2.33;70.78;100830.77;129698;1274;108751;-77
2022/03/09 06:41:20;;;;;;;64.00;36.10;;;;;;;2.33;70.61;100831.10;129701;1274;108124;-77
2022/03/09 06:44:26;;;;;;;59.30;33.60;;;;;;;2.39;70.51;100836.97;129654;1274;108883;-76
2022/03/09 06:47:32;;;;;;;57.40;31.40;;;;;;;2.43;70.42;100841.80;129473;1276;108864;-77
2022/03/09 06:50:38;;;;;;;61.40;31.10;;;;;;;2.48;70.52;100847.53;129642;1276;108677;-77
2022/03/09 06:53:45;;;;;;;49.60;24.50;;;;;;;2.55;70.56;100848.86;129547;1275;108986;-77
2022/03/09 06:56:53;;;;;;;54.00;28.90;;;;;;;2.61;70.67;100856.60;129730;1274;107015;-77
2022/03/09 06:59:58;;;;;;;40.10;23.10;;;;;;;2.64;70.55;100864.15;129699;1274;108696;-79
2022/03/09 07:03:05;;;;;;;49.20;27.10;;;;;;;2.72;70.65;100863.35;129557;1276;108699;-76
2022/03/09 07:06:11;;;;;;;41.80;22.70;;;;;;;2.81;70.39;100857.09;129606;1275;108882;-77
2022/03/09 07:09:16;;;;;;;44.30;22.70;;;;;;;2.90;70.24;100859.20;129555;1276;107261;-77
2022/03/09 07:12:22;;;;;;;77.30;37.70;;;;;;;2.93;69.98;100856.17;129500;1276;108766;-77
2022/03/09 07:15:28;;;;;;;52.40;27.30;;;;;;;2.93;70.02;100847.73;129529;1276;108543;-77
2022/03/09 07:18:33;;;;;;;43.90;23.80;;;;;;;2.94;69.91;100850.51;129643;1274;108732;-77
2022/03/09 07:21:39;;;;;;;68.00;36.70;;;;;;;3.02;70.08;100848.25;129695;1274;108747;-77
2022/03/09 07:24:44;;;;;;;59.30;30.70;;;;;;;3.05;69.75;100851.08;129598;1276;108691;-75
2022/03/09 07:27:50;;;;;;;79.80;37.50;;;;;;;3.01;69.58;100848.15;129784;1274;108931;-75
2022/03/09 07:30:55;;;;;;;42.90;23.80;;;;;;;2.98;69.32;100846.05;129765;1274;108833;-76
2022/03/09 07:34:00;;;;;;;38.50;19.50;;;;;;;3.04;69.14;100847.81;129779;1274;108728;-77
2022/03/09 07:37:06;;;;;;;33.90;18.40;;;;;;;3.16;68.57;100844.50;129766;1276;107257;-77
2022/03/09 07:40:13;;;;;;;47.60;24.20;;;;;;;3.24;68.07;100841.14;129736;1274;108722;-76
2022/03/09 07:43:18;;;;;;;58.50;28.00;;;;;;;3.29;67.65;100839.80;129805;1274;109790;-77
2022/03/09 07:46:23;;;;;;;41.20;22.80;;;;;;;3.36;67.29;100834.48;129697;1274;108795;-76
2022/03/09 07:49:33;;;;;;;38.00;20.20;;;;;;;3.41;67.23;100833.33;129692;1276;108876;-77
2022/03/09 07:52:39;;;;;;;32.70;18.50;;;;;;;3.43;66.64;100831.42;129678;1275;108685;-75
2022/03/09 07:55:44;;;;;;;32.70;17.70;;;;;;;3.46;65.46;100827.02;129697;1274;109006;-77
2022/03/09 07:58:49;;;;;;;28.30;16.50;;;;;;;3.49;65.50;100828.44;129699;1274;106838;-76
2022/03/09 08:01:55;;;;;;;40.40;23.50;;;;;;;3.55;66.06;100822.41;129701;1275;109164;-76
2022/03/09 08:05:00;;;;;;;29.90;16.10;;;;;;;3.62;65.26;100821.64;129786;1275;108797;-76
2022/03/09 08:08:06;;;;;;;72.60;34.80;;;;;;;3.67;64.66;100815.33;129730;1275;108868;-75
2022/03/09 08:11:12;;;;;;;48.10;26.60;;;;;;;3.71;64.15;100811.92;129740;1276;108552;-76
2022/03/09 08:14:17;;;;;;;42.20;23.60;;;;;;;3.77;65.23;100803.11;129693;1274;108884;-78
2022/03/09 08:17:23;;;;;;;36.70;20.20;;;;;;;3.84;63.93;100809.01;129691;1274;108903;-76
2022/03/09 08:20:29;;;;;;;45.70;27.80;;;;;;;3.92;64.85;100812.21;129755;1274;108962;-77
2022/03/09 08:23:34;;;;;;;36.00;20.70;;;;;;;3.98;64.55;100814.48;129755;1275;108875;-76
2022/03/09 08:26:40;;;;;;;28.70;15.70;;;;;;;4.05;64.01;100819.34;129562;1275;108647;-77
2022/03/09 08:29:47;;;;;;;29.70;16.60;;;;;;;4.09;63.64;100823.64;129793;1274;108714;-77
2022/03/09 08:32:54;;;;;;;28.10;16.70;;;;;;;4.13;64.31;100817.91;129549;1276;107816;-77
2022/03/09 08:36:00;;;;;;;28.70;16.00;;;;;;;4.21;64.20;100815.33;129650;1276;108815;-73
2022/03/09 08:39:05;;;;;;;31.50;17.90;;;;;;;4.28;64.21;100809.40;129687;1275;108867;-77
2022/03/09 08:42:11;;;;;;;28.40;16.90;;;;;;;4.34;63.07;100801.80;129700;1274;107568;-76
2022/03/09 08:45:17;;;;;;;34.70;18.70;;;;;;;4.40;63.41;100802.09;129613;1276;108726;-77
2022/03/09 08:48:26;;;;;;;29.90;15.50;;;;;;;4.47;63.45;100805.38;129591;1276;108774;-77
2022/03/09 08:51:31;;;;;;;47.20;21.50;;;;;;;4.53;63.36;100807.42;129656;1276;109046;-75
2022/03/09 08:54:37;;;;;;;35.60;19.40;;;;;;;4.60;63.94;100805.73;129545;1276;110049;-76
2022/03/09 08:57:42;;;;;;;30.10;17.70;;;;;;;4.72;63.32;100806.17;129526;1275;107718;-76
2022/03/09 09:00:49;;;;;;;41.10;18.30;;;;;;;4.83;63.09;100807.02;129520;1276;108819;-76
2022/03/09 09:03:55;;;;;;;33.70;16.70;;;;;;;4.93;63.39;100802.48;129523;1275;108686;-76
2022/03/09 09:07:00;;;;;;;35.90;21.10;;;;;;;4.98;62.54;100800.08;129484;1276;107137;-73
2022/03/09 09:10:07;;;;;;;34.90;20.10;;;;;;;5.03;62.88;100796.86;129493;1276;108799;-76
2022/03/09 09:13:13;;;;;;;32.00;16.10;;;;;;;5.13;62.94;100796.57;129464;1276;108739;-76
2022/03/09 09:16:19;;;;;;;64.70;30.70;;;;;;;5.24;62.81;100794.95;129647;1276;108985;-74
2022/03/09 09:19:24;;;;;;;60.00;30.50;;;;;;;5.33;61.98;100798.23;129670;1275;108859;-75
2022/03/09 09:22:29;;;;;;;43.00;22.90;;;;;;;5.34;61.99;100802.16;129615;1276;108871;-77
2022/03/09 09:25:36;;;;;;;26.80;14.50;;;;;;;5.39;61.19;100802.52;129476;1276;108742;-76
2022/03/09 09:28:41;;;;;;;27.60;16.90;;;;;;;5.45;61.46;100808.42;129676;1275;108978;-75
2022/03/09 09:31:47;;;;;;;79.60;31.60;;;;;;;5.51;60.77;100810.02;129598;1276;109051;-76
2022/03/09 09:34:52;;;;;;;44.20;25.00;;;;;;;5.55;62.00;100811.52;129641;1276;108952;-76
2022/03/09 09:38:06;;;;;;;44.30;21.20;;;;;;;5.60;62.08;100810.23;129618;1276;108785;-76
2022/03/09 09:41:18;;;;;;;40.30;21.70;;;;;;;5.71;62.55;100814.92;129648;1276;109013;-75
2022/03/09 09:44:25;;;;;;;36.70;22.00;;;;;;;5.82;61.57;100823.54;129506;1275;108948;-76
2022/03/09 09:47:33;;;;;;;33.50;20.60;;;;;;;5.83;61.09;100826.27;129511;1275;108895;-76
2022/03/09 09:50:40;;;;;;;42.20;24.90;;;;;;;5.79;61.16;100826.75;129775;1274;109232;-76
2022/03/09 09:53:47;;;;;;;38.00;23.30;;;;;;;5.81;61.68;100821.70;129524;1276;108731;-76
2022/03/09 09:56:53;;;;;;;33.10;20.70;;;;;;;5.88;61.10;100827.52;129527;1277;108627;-76
2022/03/09 09:59:59;;;;;;;29.50;16.80;;;;;;;5.92;60.92;100830.44;129659;1276;108991;-75
2022/03/09 10:03:06;;;;;;;26.50;16.00;;;;;;;5.94;60.94;100829.06;129706;1274;108946;-76
2022/03/09 10:06:11;;;;;;;28.30;18.10;;;;;;;5.97;61.57;100823.55;129744;1274;108946;-77
2022/03/09 10:09:19;;;;;;;28.20;17.90;;;;;;;6.06;60.56;100822.27;129558;1277;108919;-75
2022/03/09 10:12:34;;;;;;;25.50;15.10;;;;;;;6.18;61.51;100823.69;129672;1274;108628;-75
2022/03/09 10:15:39;;;;;;;24.00;13.70;;;;;;;6.28;60.23;100822.04;129748;1274;108796;-75
2022/03/09 10:18:53;;;;;;;25.00;15.20;;;;;;;6.38;59.70;100821.69;129684;1277;108872;-75
2022/03/09 10:21:58;;;;;;;20.20;13.60;;;;;;;6.44;59.87;100818.75;129696;1274;108978;-77
2022/03/09 10:25:19;;;;;;;25.00;14.30;;;;;;;6.52;59.39;100817.85;129733;1272;108869;-74
2022/03/09 10:28:24;;;;;;;20.20;12.70;;;;;;;6.51;57.84;100822.83;129683;1274;108726;-75
2022/03/09 10:31:41;;;;;;;26.60;16.00;;;;;;;6.55;58.46;100824.86;129769;1274;107236;-76
2022/03/09 10:34:50;;;;;;;22.80;13.60;;;;;;;6.50;57.46;100825.02;129713;1274;108931;-77
2022/03/09 10:37:55;;;;;;;26.10;16.60;;;;;;;6.49;58.35;100821.55;129671;1275;108766;-77
2022/03/09 10:41:05;;;;;;;24.00;15.40;;;;;;;6.53;58.23;100823.09;129755;1274;108814;-77
2022/03/09 10:44:11;;;;;;;19.20;11.80;;;;;;;6.55;57.69;100821.11;129464;1276;108822;-76
2022/03/09 10:47:31;;;;;;;18.90;11.80;;;;;;;6.54;56.32;100824.44;129778;1274;108649;-77
2022/03/09 10:50:37;;;;;;;19.40;11.50;;;;;;;6.57;57.63;100825.95;129719;1274;108752;-75
2022/03/09 10:53:47;;;;;;;16.90;9.60;;;;;;;6.70;57.57;100824.15;129690;1274;108895;-77
2022/03/09 10:57:05;;;;;;;18.80;11.00;;;;;;;6.82;57.13;100820.59;129738;1275;109016;-76
2022/03/09 11:00:13;;;;;;;16.60;10.20;;;;;;;6.91;55.62;100815.63;129680;1274;107553;-76
2022/03/09 11:03:20;;;;;;;19.00;11.10;;;;;;;6.99;56.12;100813.96;129785;1274;109023;-77
2022/03/09 11:06:26;;;;;;;17.70;10.70;;;;;;;7.07;55.48;100811.23;129769;1274;108884;-76
2022/03/09 11:09:32;;;;;;;15.80;9.40;;;;;;;7.13;56.02;100803.52;129617;1277;108770;-77
2022/03/09 11:12:38;;;;;;;14.80;9.40;;;;;;;7.18;57.20;100795.17;129725;1274;108732;-76
2022/03/09 11:15:47;;;;;;;16.50;9.50;;;;;;;7.28;57.56;100796.57;129727;1274;108779;-76
2022/03/09 11:18:54;;;;;;;15.80;10.80;;;;;;;7.34;55.43;100793.63;129742;1274;108865;-77
2022/03/09 11:22:01;;;;;;;15.80;9.70;;;;;;;7.39;57.00;100787.41;129752;1274;108898;-74
2022/03/09 11:25:08;;;;;;;24.90;12.50;;;;;;;7.38;54.55;100790.64;129762;1274;107098;-76
2022/03/09 11:28:21;;;;;;;29.50;15.60;;;;;;;7.44;55.89;100784.69;129734;1274;108949;-77
2022/03/09 11:31:44;;;;;;;18.70;9.80;;;;;;;7.53;54.82;100785.64;129731;1274;108644;-77
2022/03/09 11:34:51;;;;;;;15.50;10.10;;;;;;;7.56;53.21;100787.82;129761;1274;108928;-75
2022/03/09 11:37:56;;;;;;;17.40;10.30;;;;;;;7.53;53.98;100793.04;129670;1274;106927;-75
2022/03/09 11:41:20;;;;;;;17.00;10.90;;;;;;;7.52;55.20;100785.55;129710;1274;108769;-76
2022/03/09 11:44:34;;;;;;;19.30;11.90;;;;;;;7.51;54.94;100790.89;129742;1274;107681;-76
2022/03/09 11:48:00;;;;;;;14.50;9.50;;;;;;;7.45;54.66;100790.11;129707;1274;108593;-76
2022/03/09 11:51:13;;;;;;;17.70;10.90;;;;;;;7.47;55.59;100788.17;129822;1274;108814;-77
2022/03/09 11:54:42;;;;;;;18.80;11.70;;;;;;;7.47;53.04;100794.02;129770;1274;108600;-76
2022/03/09 11:58:11;;;;;;;20.10;11.20;;;;;;;7.46;53.72;100795.88;129680;1274;108740;-76
2022/03/09 12:01:16;;;;;;;33.80;17.70;;;;;;;7.57;53.42;100798.21;129695;1274;109832;-76
2022/03/09 12:04:48;;;;;;;13.80;8.70;;;;;;;7.66;53.07;100794.86;129700;1274;108842;-77
2022/03/09 12:07:54;;;;;;;11.50;7.70;;;;;;;7.76;52.13;100794.62;129465;1273;108721;-76
2022/03/09 12:11:00;;;;;;;27.20;14.10;;;;;;;7.75;51.45;100798.73;129691;1274;108762;-75
2022/03/09 12:14:05;;;;;;;23.80;12.90;;;;;;;7.80;51.98;100793.93;129719;1274;108903;-77
2022/03/09 12:17:11;;;;;;;17.90;10.50;;;;;;;7.86;52.48;100788.48;129662;1274;108914;-76
2022/03/09 12:20:20;;;;;;;23.30;12.80;;;;;;;7.95;52.35;100787.58;129698;1274;107479;-76
2022/03/09 12:23:26;;;;;;;16.00;8.30;;;;;;;8.06;53.21;100782.10;129797;1274;108982;-76
2022/03/09 12:26:44;;;;;;;14.60;8.80;;;;;;;8.13;51.75;100783.68;129708;1274;108989;-76
2022/03/09 12:29:50;;;;;;;17.30;9.10;;;;;;;8.12;51.97;100782.52;129817;1274;107793;-76
2022/03/09 12:32:56;;;;;;;19.00;11.00;;;;;;;8.08;50.97;100782.30;129670;1274;108890;-75
2022/03/09 12:36:09;;;;;;;19.00;11.40;;;;;;;8.03;50.47;100789.21;129676;1274;108719;-76
2022/03/09 12:39:15;;;;;;;19.90;12.00;;;;;;;8.02;51.14;100776.56;129746;1274;108694;-76
2022/03/09 12:42:20;;;;;;;31.30;17.10;;;;;;;8.11;51.00;100781.86;129857;1274;108619;-76
2022/03/09 12:45:26;;;;;;;10.50;6.50;;;;;;;8.29;50.53;100781.48;129760;1274;108896;-76
2022/03/09 12:48:38;;;;;;;12.30;5.90;;;;;;;8.52;50.53;100779.43;129713;1274;109073;-77
2022/03/09 12:51:57;;;;;;;9.40;6.10;;;;;;;8.79;48.69;100785.24;129703;1274;108795;-75
2022/03/09 12:55:02;;;;;;;11.70;7.10;;;;;;;9.03;49.68;100789.05;129649;1274;108995;-75
2022/03/09 12:58:08;;;;;;;11.40;7.70;;;;;;;9.16;49.86;100786.73;129656;1274;108749;-76
2022/03/09 13:01:14;;;;;;;11.00;7.20;;;;;;;9.27;49.43;100792.33;129653;1274;108768;-76
2022/03/09 13:04:22;;;;;;;11.60;6.90;;;;;;;9.35;49.19;100794.44;129843;1274;108745;-76
2022/03/09 13:07:28;;;;;;;13.90;7.90;;;;;;;9.39;49.81;100795.92;129734;1274;108821;-76
2022/03/09 13:10:40;;;;;;;12.90;7.40;;;;;;;9.42;49.24;100797.58;129722;1274;108952;-77
2022/03/09 13:13:47;;;;;;;10.20;6.00;;;;;;;9.38;48.35;100798.80;129641;1274;108997;-76
2022/03/09 13:17:04;;;;;;;7.80;5.60;;;;;;;9.44;49.81;100801.02;129707;1274;108905;-76
2022/03/09 13:20:12;;;;;;;11.50;6.10;;;;;;;9.52;49.28;100797.64;129696;1274;108685;-77
2022/03/09 13:23:30;;;;;;;9.90;6.80;;;;;;;9.54;49.36;100795.65;129808;1274;109015;-76
2022/03/09 13:26:43;;;;;;;10.60;6.90;;;;;;;9.51;48.84;100796.11;129836;1274;107716;-77
2022/03/09 13:29:49;;;;;;;10.40;6.50;;;;;;;9.50;50.43;100794.23;129763;1274;108880;-74
2022/03/09 13:32:54;;;;;;;11.10;6.80;;;;;;;9.48;49.10;100793.36;129791;1274;108896;-76
2022/03/09 13:36:00;;;;;;;10.50;6.70;;;;;;;9.36;48.79;100799.91;129651;1274;108757;-77
2022/03/09 13:39:05;;;;;;;9.80;6.20;;;;;;;9.30;50.16;100808.73;129615;1274;108814;-78
2022/03/09 13:42:21;;;;;;;10.70;7.00;;;;;;;9.24;49.70;100811.54;129780;1274;109266;-79
2022/03/09 13:45:31;;;;;;;10.50;7.50;;;;;;;9.16;49.02;100813.73;129766;1274;108581;-79
2022/03/09 13:48:36;;;;;;;10.40;6.30;;;;;;;8.95;48.87;100813.11;129712;1274;109654;-77
2022/03/09 13:51:42;;;;;;;10.50;6.90;;;;;;;8.81;48.80;100820.33;129796;1274;108961;-76
2022/03/09 13:54:48;;;;;;;11.90;6.90;;;;;;;8.62;49.40;100821.37;129737;1275;108980;-75
2022/03/09 13:58:05;;;;;;;20.80;14.30;;;;;;;8.54;50.12;100820.98;129675;1274;108752;-77
2022/03/09 14:01:13;;;;;;;35.40;24.40;;;;;;;8.50;50.39;100823.73;129630;1276;108901;-76
2022/03/09 14:04:19;;;;;;;17.50;11.00;;;;;;;8.53;50.87;100831.66;129663;1274;108648;-76